Time;durP1;ratioP1;P1;durP2;ratioP2;P2;SDS_P1;SDS_P2;PMS_P1;PMS_P2;Temp;Humidity;BMP_temperature;BMP_pressure;BME280_temperature;BME280_humidity;BME280_pressure;Samples;Min_cycle;Max_cycle;Signal;HPM_P1;HPM_P2
2022/07/07 00:04:04;;;;;;;1.90;1.40;;;25.20;53.40;;;;;;220274;1270;25317;-54
2022/07/07 00:09:07;;;;;;;3.80;1.60;;;25.20;53.00;;;;;;219977;1271;22562;-55
2022/07/07 00:14:11;;;;;;;2.00;1.20;;;25.20;53.40;;;;;;220172;1270;22567;-58
2022/07/07 00:19:15;;;;;;;3.60;1.40;;;25.10;53.40;;;;;;220095;1270;23901;-53
2022/07/07 00:24:19;;;;;;;2.30;1.60;;;25.10;53.70;;;;;;220268;1270;22613;-52
2022/07/07 00:29:23;;;;;;;2.50;1.50;;;25.10;54.00;;;;;;220153;1270;25414;-55
2022/07/07 00:34:26;;;;;;;2.70;1.30;;;25.10;53.70;;;;;;220209;1270;22524;-54
2022/07/07 00:39:30;;;;;;;2.70;1.70;;;25.10;53.40;;;;;;220043;1271;26500;-53
2022/07/07 00:44:34;;;;;;;2.70;1.40;;;25.10;54.00;;;;;;220309;1270;25233;-50
2022/07/07 00:49:40;;;;;;;2.20;1.40;;;25.10;53.40;;;;;;220020;1271;22569;-53
2022/07/07 00:54:56;;;;;;;2.20;1.50;;;25.10;53.40;;;;;;220222;1270;25497;-54
2022/07/07 01:00:04;;;;;;;2.80;1.50;;;25.10;53.70;;;;;;220156;1269;22551;-51
2022/07/07 01:05:09;;;;;;;1.90;1.30;;;25.10;53.40;;;;;;220352;1270;24338;-55
2022/07/07 01:10:12;;;;;;;1.80;1.20;;;25.00;53.40;;;;;;220133;1270;22552;-55
2022/07/07 01:15:16;;;;;;;2.40;1.50;;;25.00;53.40;;;;;;220136;1270;22539;-53
2022/07/07 01:20:21;;;;;;;2.00;1.30;;;25.00;53.50;;;;;;220256;1270;24226;-52
2022/07/07 01:25:24;;;;;;;2.70;1.40;;;25.00;53.40;;;;;;220128;1270;22531;-54
2022/07/07 01:30:28;;;;;;;3.00;1.60;;;25.00;53.50;;;;;;220125;1270;25356;-55
2022/07/07 01:35:32;;;;;;;2.50;1.50;;;24.90;53.00;;;;;;219953;1270;380555;-54
2022/07/07 01:40:37;;;;;;;2.50;1.40;;;24.90;53.40;;;;;;219998;1270;25304;-53
2022/07/07 01:45:41;;;;;;;3.00;1.50;;;24.90;53.80;;;;;;219898;1270;22516;-52
2022/07/07 01:50:44;;;;;;;4.10;1.40;;;24.90;53.50;;;;;;219842;1270;24935;-55
2022/07/07 01:55:48;;;;;;;4.20;1.50;;;24.90;53.50;;;;;;220208;1270;24322;-54
2022/07/07 02:00:52;;;;;;;2.10;1.40;;;24.90;53.50;;;;;;220218;1270;22538;-54
2022/07/07 02:05:55;;;;;;;2.20;1.50;;;24.90;53.50;;;;;;220214;1270;22651;-53
2022/07/07 02:11:14;;;;;;;5.60;1.30;;;24.90;53.90;;;;;;220229;1270;22588;-53
2022/07/07 02:16:20;;;;;;;4.50;1.50;;;24.90;53.50;;;;;;220216;1270;25343;-53
2022/07/07 02:21:25;;;;;;;3.30;1.20;;;24.90;54.00;;;;;;220276;1270;25491;-53
2022/07/07 02:26:31;;;;;;;4.40;1.40;;;24.80;53.20;;;;;;220080;1270;26882;-53
2022/07/07 02:31:34;;;;;;;2.50;1.50;;;24.90;53.70;;;;;;220302;1270;22832;-55
2022/07/07 02:36:38;;;;;;;2.00;1.20;;;24.80;53.60;;;;;;220380;1270;22580;-55
2022/07/07 02:41:42;;;;;;;3.40;1.60;;;24.90;53.60;;;;;;220278;1270;24221;-54
2022/07/07 02:46:45;;;;;;;2.20;1.30;;;24.80;53.90;;;;;;219945;1271;22577;-54
2022/07/07 02:51:50;;;;;;;2.10;1.40;;;24.80;53.60;;;;;;220194;1270;22664;-54
2022/07/07 02:56:53;;;;;;;1.90;1.30;;;24.80;53.60;;;;;;220154;1270;22521;-53
2022/07/07 03:01:57;;;;;;;2.20;1.40;;;24.80;54.30;;;;;;220098;1271;22532;-53
2022/07/07 03:07:01;;;;;;;2.50;1.40;;;24.80;53.70;;;;;;220356;1270;25624;-55
2022/07/07 03:12:05;;;;;;;2.20;1.30;;;24.80;53.70;;;;;;220179;1270;24208;-55
2022/07/07 03:17:09;;;;;;;2.70;1.70;;;24.80;53.70;;;;;;220302;1270;23924;-55
2022/07/07 03:22:13;;;;;;;2.10;1.30;;;24.80;54.10;;;;;;220090;1270;22656;-54
2022/07/07 03:27:17;;;;;;;3.90;1.40;;;24.70;53.70;;;;;;220142;1270;22567;-55
2022/07/07 03:32:20;;;;;;;1.80;1.20;;;24.80;53.80;;;;;;220388;1270;24338;-55
2022/07/07 03:37:24;;;;;;;2.30;1.50;;;24.70;54.00;;;;;;220174;1270;25245;-54
2022/07/07 03:42:28;;;;;;;1.90;1.30;;;24.70;53.20;;;;;;220496;1270;25469;-54
2022/07/07 03:47:32;;;;;;;2.30;1.30;;;24.70;53.30;;;;;;220164;1270;23933;-53
2022/07/07 03:52:36;;;;;;;3.70;1.30;;;24.70;53.30;;;;;;220149;1273;24283;-51
2022/07/07 03:57:41;;;;;;;1.90;1.20;;;24.70;53.80;;;;;;220020;1270;24216;-55
2022/07/07 04:02:45;;;;;;;2.80;1.40;;;24.70;53.80;;;;;;220209;1270;24285;-51
2022/07/07 04:07:49;;;;;;;2.20;1.50;;;24.70;53.80;;;;;;220484;1270;22559;-52
2022/07/07 04:12:56;;;;;;;2.20;1.30;;;24.70;53.80;;;;;;220246;1270;22532;-54
2022/07/07 04:17:59;;;;;;;2.40;1.40;;;24.70;53.90;;;;;;220074;1270;25437;-51
2022/07/07 04:23:03;;;;;;;4.80;1.70;;;24.70;53.90;;;;;;219965;1273;24429;-52
2022/07/07 04:28:09;;;;;;;2.00;1.30;;;24.70;53.90;;;;;;220317;1270;22564;-53
2022/07/07 04:33:13;;;;;;;2.40;1.30;;;24.70;54.00;;;;;;220140;1270;25329;-54
2022/07/07 04:38:16;;;;;;;2.00;1.30;;;24.70;54.40;;;;;;220058;1270;25278;-54
2022/07/07 04:43:20;;;;;;;2.60;1.30;;;24.70;53.90;;;;;;220126;1270;22532;-55
2022/07/07 04:48:24;;;;;;;1.90;1.40;;;24.70;54.00;;;;;;220098;1270;25229;-52
2022/07/07 04:53:27;;;;;;;2.10;1.40;;;24.70;54.00;;;;;;220148;1270;22545;-51
2022/07/07 04:58:32;;;;;;;2.20;1.30;;;24.70;54.00;;;;;;219926;1270;23194;-50
2022/07/07 05:03:36;;;;;;;2.20;1.20;;;24.70;54.00;;;;;;220111;1270;25297;-51
2022/07/07 05:08:40;;;;;;;2.30;1.30;;;24.70;54.00;;;;;;220509;1270;22694;-53
2022/07/07 05:13:43;;;;;;;2.40;1.50;;;24.70;54.00;;;;;;220360;1270;22532;-52
2022/07/07 05:18:47;;;;;;;2.80;1.40;;;24.60;54.00;;;;;;220020;1271;22553;-53
2022/07/07 05:23:51;;;;;;;2.10;1.40;;;24.70;54.00;;;;;;220078;1270;22650;-54
2022/07/07 05:28:55;;;;;;;2.50;1.60;;;24.70;54.00;;;;;;220241;1270;22622;-53
2022/07/07 05:33:58;;;;;;;2.70;1.60;;;24.70;54.10;;;;;;220110;1270;25239;-55
2022/07/07 05:39:02;;;;;;;2.30;1.60;;;24.70;54.00;;;;;;220074;1270;25521;-54
2022/07/07 05:44:06;;;;;;;2.10;1.40;;;24.70;54.30;;;;;;219997;1273;22553;-55
2022/07/07 05:49:09;;;;;;;3.10;1.50;;;24.70;54.00;;;;;;220307;1270;22538;-52
2022/07/07 05:54:14;;;;;;;2.50;1.50;;;24.70;54.00;;;;;;220225;1270;25294;-56
2022/07/07 05:59:17;;;;;;;2.20;1.50;;;24.70;54.00;;;;;;220100;1270;26011;-53
2022/07/07 06:04:26;;;;;;;2.80;1.60;;;24.70;53.90;;;;;;220094;1270;22570;-53
2022/07/07 06:09:30;;;;;;;5.30;1.80;;;24.70;53.90;;;;;;219793;1272;22550;-52
2022/07/07 06:14:35;;;;;;;3.20;1.40;;;24.70;53.90;;;;;;219943;1271;24009;-55
2022/07/07 06:19:39;;;;;;;5.60;1.60;;;24.70;53.90;;;;;;220314;1270;22687;-53
2022/07/07 06:24:42;;;;;;;2.60;1.50;;;24.70;53.90;;;;;;220144;1270;24231;-54
2022/07/07 06:29:47;;;;;;;4.30;1.90;;;24.70;53.90;;;;;;219918;1273;22732;-52
2022/07/07 06:34:51;;;;;;;2.40;1.50;;;24.80;54.20;;;;;;219990;1270;22553;-52
2022/07/07 06:39:55;;;;;;;3.90;1.60;;;24.80;53.90;;;;;;220175;1271;22544;-52
2022/07/07 06:44:59;;;;;;;4.50;1.60;;;24.80;53.90;;;;;;219927;1273;25273;-53
2022/07/07 06:50:03;;;;;;;2.30;1.50;;;24.80;53.80;;;;;;220139;1271;22768;-53
2022/07/07 06:55:07;;;;;;;3.00;1.90;;;24.80;53.80;;;;;;219868;1270;26488;-54
2022/07/07 07:00:18;;;;;;;3.20;1.80;;;24.90;54.30;;;;;;220064;1270;25446;-54
2022/07/07 07:05:26;;;;;;;6.20;2.10;;;24.90;54.30;;;;;;220264;1270;24225;-57
2022/07/07 07:10:31;;;;;;;4.40;1.90;;;24.90;53.90;;;;;;220093;1271;22878;-52
2022/07/07 07:15:34;;;;;;;3.90;1.80;;;25.00;53.90;;;;;;220078;1270;22567;-55
2022/07/07 07:20:40;;;;;;;3.10;1.70;;;24.90;53.80;;;;;;220100;1270;24219;-52
2022/07/07 07:25:47;;;;;;;3.00;1.70;;;25.00;53.90;;;;;;219876;1271;25361;-53
2022/07/07 07:30:53;;;;;;;4.30;2.00;;;25.00;53.60;;;;;;220127;1270;23026;-53
2022/07/07 07:36:12;;;;;;;3.80;1.80;;;25.00;53.90;;;;;;220181;1270;22531;-54
2022/07/07 07:41:17;;;;;;;2.30;1.50;;;25.00;53.80;;;;;;220269;1270;24377;-55
2022/07/07 07:46:20;;;;;;;3.50;1.80;;;25.10;53.80;;;;;;220127;1270;24250;-55
2022/07/07 07:51:24;;;;;;;3.10;1.70;;;25.10;53.80;;;;;;220067;1271;22577;-54
2022/07/07 07:56:29;;;;;;;3.60;1.70;;;25.10;53.90;;;;;;220058;1271;26108;-55
2022/07/07 08:01:33;;;;;;;3.40;1.80;;;25.10;54.10;;;;;;220161;1270;22553;-54
2022/07/07 08:06:37;;;;;;;3.90;1.90;;;25.10;54.20;;;;;;220350;1270;22561;-56
2022/07/07 08:11:41;;;;;;;4.60;1.60;;;25.10;54.00;;;;;;220110;1270;22567;-53
2022/07/07 08:16:45;;;;;;;4.50;1.70;;;25.10;54.20;;;;;;219995;1270;25488;-53
2022/07/07 08:21:50;;;;;;;3.00;1.60;;;25.10;54.40;;;;;;220278;1271;24881;-53
2022/07/07 08:26:55;;;;;;;4.20;1.40;;;25.20;54.00;;;;;;219890;1271;25300;-54
2022/07/07 08:31:59;;;;;;;3.40;1.60;;;25.20;54.30;;;;;;219954;1271;22559;-55
2022/07/07 08:37:07;;;;;;;2.50;1.50;;;25.20;53.70;;;;;;220020;1271;26465;-51
2022/07/07 08:42:12;;;;;;;2.40;1.60;;;25.30;54.00;;;;;;219885;1271;24218;-52
2022/07/07 08:47:16;;;;;;;3.40;1.40;;;25.30;53.70;;;;;;220138;1270;22554;-55
2022/07/07 08:52:26;;;;;;;2.50;1.50;;;25.20;53.70;;;;;;220099;1270;22613;-52
2022/07/07 08:57:30;;;;;;;3.10;1.80;;;25.30;53.80;;;;;;220160;1270;22620;-54
2022/07/07 09:02:34;;;;;;;1.90;1.30;;;25.30;54.00;;;;;;219672;1271;25403;-52
2022/07/07 09:07:44;;;;;;;2.80;1.60;;;25.30;53.60;;;;;;219862;1271;22564;-53
2022/07/07 09:12:51;;;;;;;3.10;1.50;;;25.40;53.60;;;;;;220160;1270;25239;-55
2022/07/07 09:17:57;;;;;;;2.20;1.20;;;25.30;53.50;;;;;;219927;1271;22535;-52
2022/07/07 09:23:09;;;;;;;2.20;1.30;;;25.40;53.60;;;;;;220038;1271;24098;-54
2022/07/07 09:28:16;;;;;;;2.70;1.50;;;25.40;53.80;;;;;;219913;1271;24216;-54
2022/07/07 09:33:22;;;;;;;2.40;1.70;;;25.40;53.80;;;;;;220065;1270;22559;-54
2022/07/07 09:38:28;;;;;;;2.50;1.50;;;25.40;53.40;;;;;;220140;1270;22567;-53
2022/07/07 09:43:44;;;;;;;2.30;1.30;;;25.40;53.50;;;;;;220116;1271;22671;-55
2022/07/07 09:49:02;;;;;;;2.10;1.30;;;25.50;53.30;;;;;;219960;1271;25241;-56
2022/07/07 09:54:21;;;;;;;3.50;1.70;;;25.50;53.50;;;;;;220069;1272;22595;-53
2022/07/07 09:59:29;;;;;;;2.30;1.40;;;25.50;54.40;;;;;;220086;1271;22550;-52
2022/07/07 10:04:45;;;;;;;4.00;1.90;;;25.50;53.80;;;;;;219968;1272;24221;-53
2022/07/07 10:10:01;;;;;;;2.80;1.50;;;25.60;54.70;;;;;;220414;1271;22548;-54
2022/07/07 10:15:11;;;;;;;3.00;1.90;;;25.60;54.20;;;;;;220356;1271;22784;-51
2022/07/07 10:20:15;;;;;;;3.20;1.70;;;25.70;54.70;;;;;;220100;1271;22554;-50
2022/07/07 10:25:19;;;;;;;4.70;1.70;;;25.70;54.20;;;;;;219867;1271;25246;-55
2022/07/07 10:30:31;;;;;;;4.50;1.60;;;25.70;54.30;;;;;;219924;1271;25436;-52
2022/07/07 10:35:45;;;;;;;4.00;1.50;;;25.70;54.20;;;;;;220479;1267;25279;-54
2022/07/07 10:40:53;;;;;;;2.40;1.20;;;25.70;54.30;;;;;;220417;1269;24427;-54
2022/07/07 10:45:58;;;;;;;5.50;1.60;;;25.70;54.00;;;;;;220513;1268;22528;-48
2022/07/07 10:51:21;;;;;;;7.30;1.80;;;26.40;53.40;;;;;;220162;1271;22542;-52
2022/07/07 10:56:27;;;;;;;2.40;1.40;;;26.40;52.50;;;;;;220133;1271;22645;-54
2022/07/07 11:01:32;;;;;;;2.40;1.50;;;26.40;52.70;;;;;;220626;1268;24262;-49
2022/07/07 11:07:14;;;;;;;3.20;1.50;;;26.20;53.00;;;;;;220279;1268;24339;-52
2022/07/07 11:12:37;;;;;;;3.20;1.60;;;26.20;53.40;;;;;;220261;1271;24349;-51
2022/07/07 11:17:46;;;;;;;2.20;1.50;;;26.10;52.80;;;;;;219994;1271;25292;-53
2022/07/07 11:23:04;;;;;;;3.40;1.70;;;26.00;52.70;;;;;;220290;1273;24248;-49
2022/07/07 11:28:12;;;;;;;4.20;1.40;;;26.00;52.90;;;;;;220265;1268;25257;-50
2022/07/07 11:33:21;;;;;;;3.00;1.80;;;26.00;52.70;;;;;;220651;1269;23181;-50
2022/07/07 11:38:29;;;;;;;3.30;1.60;;;26.00;53.00;;;;;;220241;1269;24233;-51
2022/07/07 11:43:33;;;;;;;2.80;1.30;;;26.00;53.00;;;;;;219972;1272;24382;-52
2022/07/07 11:48:41;;;;;;;3.10;1.40;;;26.10;52.90;;;;;;220230;1269;22562;-52
2022/07/07 11:53:55;;;;;;;2.60;1.40;;;26.10;52.90;;;;;;220010;1268;24360;-52
2022/07/07 11:59:00;;;;;;;2.70;1.40;;;26.10;53.00;;;;;;220362;1269;23179;-51
2022/07/07 12:04:18;;;;;;;2.70;1.50;;;26.10;53.00;;;;;;220618;1268;25296;-53
2022/07/07 12:09:25;;;;;;;2.50;1.40;;;26.10;53.00;;;;;;220233;1269;22533;-53
2022/07/07 12:14:36;;;;;;;2.60;1.20;;;26.10;52.80;;;;;;220145;1268;25139;-54
2022/07/07 12:19:50;;;;;;;2.20;1.30;;;26.10;52.70;;;;;;220443;1268;24293;-52
2022/07/07 12:25:05;;;;;;;2.70;1.50;;;26.10;52.50;;;;;;220161;1268;22575;-52
2022/07/07 12:30:50;;;;;;;5.40;1.30;;;26.10;52.60;;;;;;219899;1271;22554;-53
2022/07/07 12:35:59;;;;;;;2.30;1.40;;;26.10;52.60;;;;;;220696;1268;22554;-50
2022/07/07 12:41:29;;;;;;;2.80;1.30;;;26.10;52.60;;;;;;220245;1268;22547;-51
2022/07/07 12:46:37;;;;;;;3.30;1.50;;;26.10;52.40;;;;;;220435;1268;24292;-54
2022/07/07 12:51:53;;;;;;;1.90;1.20;;;26.10;52.50;;;;;;220633;1268;24269;-51
2022/07/07 12:57:04;;;;;;;2.80;1.30;;;26.10;52.40;;;;;;220480;1268;22573;-52
2022/07/07 13:02:09;;;;;;;;;;;26.10;52.30;;;;;;220136;1268;25270;-52
2022/07/07 13:07:14;;;;;;;2.10;1.40;;;26.10;52.30;;;;;;220566;1268;22640;-52
2022/07/07 13:12:28;;;;;;;4.30;1.70;;;26.10;52.20;;;;;;220316;1268;24274;-51
2022/07/07 13:17:32;;;;;;;2.30;1.30;;;26.00;52.30;;;;;;219975;1268;24262;-54
2022/07/07 13:22:38;;;;;;;2.80;1.20;;;26.00;52.60;;;;;;220111;1268;23308;-54
2022/07/07 13:27:42;;;;;;;1.40;0.90;;;25.90;51.70;;;;;;219927;1268;24222;-51
2022/07/07 13:32:46;;;;;;;4.00;1.10;;;25.90;50.80;;;;;;219960;1267;297862;-52
2022/07/07 13:37:50;;;;;;;3.40;1.00;;;25.90;50.50;;;;;;220325;1268;22570;-49
2022/07/07 13:42:55;;;;;;;3.40;1.20;;;26.00;50.10;;;;;;220454;1268;24293;-49
2022/07/07 13:48:00;;;;;;;1.70;1.10;;;26.00;49.80;;;;;;220454;1267;22573;-49
2022/07/07 13:53:04;;;;;;;4.00;1.30;;;25.90;50.00;;;;;;220245;1267;25459;-51
2022/07/07 13:58:08;;;;;;;1.90;1.30;;;25.90;49.80;;;;;;220421;1268;22537;-53
2022/07/07 14:03:12;;;;;;;2.10;1.00;;;25.90;49.60;;;;;;220741;1267;26543;-51
2022/07/07 14:08:16;;;;;;;1.60;1.10;;;25.90;49.50;;;;;;220381;1267;22529;-50
2022/07/07 14:13:24;;;;;;;2.50;1.20;;;25.90;50.00;;;;;;220341;1267;22699;-51
2022/07/07 14:18:28;;;;;;;2.80;1.10;;;25.80;48.80;;;;;;219988;1270;24419;-51
2022/07/07 14:23:36;;;;;;;2.50;1.00;;;25.80;48.70;;;;;;220327;1267;22698;-51
2022/07/07 14:28:40;;;;;;;2.50;1.20;;;25.80;49.00;;;;;;220297;1268;24301;-53
2022/07/07 14:33:44;;;;;;;5.30;1.40;;;25.80;49.10;;;;;;220249;1267;22688;-53
2022/07/07 14:38:48;;;;;;;3.30;1.20;;;25.80;48.50;;;;;;220144;1267;24471;-47
2022/07/07 14:43:52;;;;;;;3.10;1.20;;;25.80;48.60;;;;;;220285;1267;24222;-49
2022/07/07 14:49:05;;;;;;;6.00;1.10;;;25.80;48.50;;;;;;219806;1267;22544;-49
2022/07/07 14:54:09;;;;;;;3.10;1.30;;;25.90;48.70;;;;;;220890;1267;24246;-50
2022/07/07 14:59:13;;;;;;;2.90;1.30;;;25.90;48.90;;;;;;220489;1267;22555;-52
2022/07/07 15:04:17;;;;;;;3.30;1.00;;;25.90;49.30;;;;;;220267;1267;25241;-50
2022/07/07 15:09:22;;;;;;;3.10;1.50;;;25.90;49.30;;;;;;220202;1271;24396;-51
2022/07/07 15:14:26;;;;;;;2.90;1.00;;;25.90;49.50;;;;;;220527;1267;25359;-49
2022/07/07 15:19:30;;;;;;;2.90;1.30;;;25.90;50.00;;;;;;220739;1268;24357;-49
2022/07/07 15:24:34;;;;;;;2.90;1.10;;;25.90;49.70;;;;;;220538;1268;24076;-49
2022/07/07 15:29:40;;;;;;;2.00;1.00;;;25.90;50.10;;;;;;220316;1268;22626;-51
2022/07/07 15:34:44;;;;;;;1.80;0.90;;;25.90;49.90;;;;;;220374;1268;22533;-53
2022/07/07 15:39:48;;;;;;;3.60;1.00;;;26.00;50.20;;;;;;220431;1268;24309;-49
2022/07/07 15:44:54;;;;;;;2.10;1.00;;;25.90;50.10;;;;;;220044;1268;23553;-53
2022/07/07 15:49:58;;;;;;;2.30;1.20;;;26.00;50.40;;;;;;220660;1267;22519;-51
2022/07/07 15:55:02;;;;;;;2.00;1.20;;;25.90;50.30;;;;;;220171;1267;25495;-50
2022/07/07 16:00:15;;;;;;;3.60;1.20;;;25.90;50.30;;;;;;220197;1268;22536;-49
2022/07/07 16:05:19;;;;;;;2.20;1.10;;;26.00;50.50;;;;;;220163;1270;22540;-53
2022/07/07 16:10:23;;;;;;;2.40;1.10;;;25.90;50.50;;;;;;220576;1267;22547;-52
2022/07/07 16:15:27;;;;;;;1.80;1.20;;;25.90;50.50;;;;;;220341;1268;22553;-53
2022/07/07 16:20:31;;;;;;;2.30;1.10;;;26.00;50.70;;;;;;220379;1268;22561;-49
2022/07/07 16:25:34;;;;;;;1.70;1.00;;;25.90;50.70;;;;;;220245;1268;22541;-53
2022/07/07 16:30:38;;;;;;;1.90;1.00;;;25.90;50.80;;;;;;220554;1267;24228;-50
2022/07/07 16:35:42;;;;;;;1.80;0.90;;;25.90;51.20;;;;;;220489;1267;22552;-51
2022/07/07 16:40:46;;;;;;;2.30;1.10;;;25.90;50.90;;;;;;220246;1267;22577;-49
2022/07/07 16:45:50;;;;;;;1.80;1.10;;;25.90;51.00;;;;;;220033;1268;25240;-50
2022/07/07 16:50:54;;;;;;;1.90;1.20;;;25.90;51.10;;;;;;220292;1268;23860;-53
2022/07/07 16:55:58;;;;;;;1.90;1.00;;;25.90;51.10;;;;;;220365;1267;25236;-52
2022/07/07 17:01:02;;;;;;;1.50;1.10;;;25.90;51.40;;;;;;220581;1267;22633;-53
2022/07/07 17:06:06;;;;;;;1.80;0.90;;;25.90;51.40;;;;;;220528;1267;24218;-49
2022/07/07 17:11:10;;;;;;;1.80;1.10;;;25.80;51.20;;;;;;220200;1267;22814;-52
2022/07/07 17:16:15;;;;;;;1.70;1.00;;;25.90;51.50;;;;;;220098;1267;25477;-47
2022/07/07 17:21:19;;;;;;;1.80;0.90;;;25.80;52.00;;;;;;220108;1267;22532;-50
2022/07/07 17:26:23;;;;;;;1.40;1.00;;;25.80;51.60;;;;;;220183;1268;22533;-50
2022/07/07 17:31:27;;;;;;;2.20;1.20;;;25.80;51.50;;;;;;220428;1268;24314;-53
2022/07/07 17:36:30;;;;;;;2.30;1.30;;;25.80;51.60;;;;;;220200;1270;24395;-49
2022/07/07 17:41:37;;;;;;;2.20;1.10;;;25.80;51.70;;;;;;220187;1267;25301;-51
2022/07/07 17:46:41;;;;;;;2.10;1.10;;;25.80;52.00;;;;;;220984;1267;24249;-49
2022/07/07 17:51:45;;;;;;;3.10;1.10;;;25.80;51.60;;;;;;220661;1268;24419;-48
2022/07/07 17:56:49;;;;;;;1.80;1.20;;;25.80;52.00;;;;;;220244;1268;24319;-50
2022/07/07 18:01:52;;;;;;;1.70;1.10;;;25.80;51.70;;;;;;220610;1267;22714;-51
2022/07/07 18:06:56;;;;;;;2.90;1.30;;;25.80;51.80;;;;;;220199;1268;23899;-49
2022/07/07 18:12:01;;;;;;;2.20;1.20;;;25.80;52.10;;;;;;220112;1267;23011;-51
2022/07/07 18:17:05;;;;;;;2.60;1.30;;;25.80;52.10;;;;;;220615;1267;22530;-56
2022/07/07 18:22:09;;;;;;;2.30;1.20;;;25.80;52.10;;;;;;220158;1267;22550;-53
2022/07/07 18:27:12;;;;;;;2.60;1.10;;;25.70;52.20;;;;;;220609;1267;22531;-53
2022/07/07 18:32:17;;;;;;;1.70;1.10;;;25.70;52.30;;;;;;220192;1270;24321;-51
2022/07/07 18:37:21;;;;;;;1.80;1.30;;;25.80;52.40;;;;;;220847;1267;22546;-52
2022/07/07 18:42:27;;;;;;;1.80;1.20;;;25.70;52.30;;;;;;220779;1267;26543;-53
2022/07/07 18:47:31;;;;;;;1.70;1.20;;;25.70;52.20;;;;;;220773;1267;23854;-51
2022/07/07 18:52:38;;;;;;;5.50;1.20;;;25.70;52.40;;;;;;220413;1267;26492;-50
2022/07/07 18:57:42;;;;;;;2.60;1.20;;;25.70;52.80;;;;;;220344;1268;25321;-52
2022/07/07 19:02:46;;;;;;;2.20;1.20;;;25.70;52.50;;;;;;220712;1267;22822;-56
2022/07/07 19:07:50;;;;;;;1.20;1.00;;;25.70;52.50;;;;;;220130;1270;22551;-50
2022/07/07 19:12:55;;;;;;;3.30;1.20;;;25.70;52.60;;;;;;220207;1270;25367;-52
2022/07/07 19:17:59;;;;;;;2.90;1.40;;;25.70;52.90;;;;;;220217;1270;24436;-51
2022/07/07 19:23:03;;;;;;;2.00;1.20;;;25.60;52.70;;;;;;220533;1267;25333;-51
2022/07/07 19:28:08;;;;;;;2.10;1.20;;;25.70;52.80;;;;;;220339;1267;24298;-53
2022/07/07 19:33:11;;;;;;;1.80;1.20;;;25.70;52.80;;;;;;220573;1267;25353;-53
2022/07/07 19:38:15;;;;;;;2.50;1.50;;;25.60;53.10;;;;;;220403;1267;26676;-50
2022/07/07 19:43:19;;;;;;;3.00;1.40;;;25.60;52.90;;;;;;220310;1267;22525;-53
2022/07/07 19:48:28;;;;;;;2.20;1.20;;;25.60;53.00;;;;;;220302;1267;25345;-51
2022/07/07 19:53:34;;;;;;;2.40;1.40;;;25.60;52.60;;;;;;220328;1268;22545;-54
2022/07/07 19:58:40;;;;;;;4.00;1.20;;;25.60;53.40;;;;;;220717;1267;24369;-51
2022/07/07 20:03:45;;;;;;;1.70;1.00;;;25.60;53.10;;;;;;220206;1268;24296;-48
2022/07/07 20:08:48;;;;;;;1.70;1.20;;;25.60;53.20;;;;;;220658;1267;22541;-52
2022/07/07 20:13:52;;;;;;;3.20;1.20;;;25.50;53.20;;;;;;220705;1267;25340;-49
2022/07/07 20:18:58;;;;;;;1.60;1.10;;;25.50;52.80;;;;;;220378;1268;22529;-55
2022/07/07 20:24:02;;;;;;;2.10;1.40;;;25.50;53.30;;;;;;220676;1267;23940;-53
2022/07/07 20:29:06;;;;;;;1.70;1.30;;;25.50;53.70;;;;;;220476;1267;22527;-49
2022/07/07 20:34:14;;;;;;;1.90;1.30;;;25.50;53.40;;;;;;220696;1267;24303;-51
2022/07/07 20:39:26;;;;;;;1.60;1.10;;;25.50;53.50;;;;;;220535;1267;22561;-52
2022/07/07 20:44:35;;;;;;;1.60;1.10;;;25.50;53.50;;;;;;220386;1267;22558;-52
2022/07/07 20:49:40;;;;;;;1.70;1.30;;;25.50;53.50;;;;;;220603;1267;25226;-51
2022/07/07 20:54:45;;;;;;;1.90;1.40;;;25.50;53.60;;;;;;220613;1267;22717;-51
2022/07/07 21:00:02;;;;;;;2.40;1.50;;;25.50;53.60;;;;;;220713;1267;24286;-52
2022/07/07 21:05:09;;;;;;;1.90;1.40;;;25.50;53.70;;;;;;220427;1267;24405;-52
2022/07/07 21:10:17;;;;;;;1.70;1.20;;;25.40;53.60;;;;;;220337;1267;24444;-52
2022/07/07 21:15:22;;;;;;;2.60;1.60;;;25.40;53.60;;;;;;220857;1267;27559;-52
2022/07/07 21:20:26;;;;;;;1.90;1.40;;;25.50;54.30;;;;;;220742;1267;22551;-54
2022/07/07 21:25:33;;;;;;;2.30;1.40;;;25.40;53.60;;;;;;220633;1267;22541;-52
2022/07/07 21:30:40;;;;;;;1.60;1.20;;;25.40;53.70;;;;;;220723;1268;22534;-51
2022/07/07 21:35:50;;;;;;;1.70;1.20;;;25.40;53.70;;;;;;220385;1267;22554;-52
2022/07/07 21:40:53;;;;;;;2.30;1.30;;;25.40;53.80;;;;;;220470;1267;22551;-51
2022/07/07 21:45:57;;;;;;;1.90;1.30;;;25.40;53.90;;;;;;220046;1267;22524;-55
2022/07/07 21:51:01;;;;;;;2.00;1.30;;;25.40;53.90;;;;;;220680;1267;24300;-49
2022/07/07 21:56:05;;;;;;;1.80;1.30;;;25.40;53.90;;;;;;220379;1270;24332;-52
2022/07/07 22:01:09;;;;;;;1.90;1.20;;;25.40;54.00;;;;;;220388;1267;23061;-53
2022/07/07 22:11:39;;;;;;;2.20;1.50;;;25.40;54.00;;;;;;220534;1268;25327;-50
2022/07/07 22:16:43;;;;;;;4.20;1.40;;;25.40;53.50;;;;;;220488;1267;22556;-50
2022/07/07 22:21:47;;;;;;;2.40;1.40;;;25.40;54.10;;;;;;220225;1267;22537;-54
2022/07/07 22:26:51;;;;;;;2.00;1.40;;;25.40;54.10;;;;;;220576;1267;24422;-49
2022/07/07 22:31:55;;;;;;;3.10;1.60;;;25.40;54.10;;;;;;220640;1267;25313;-51
2022/07/07 22:36:59;;;;;;;1.80;1.40;;;25.40;54.50;;;;;;220611;1268;23865;-50
2022/07/07 22:42:06;;;;;;;2.10;1.20;;;25.30;54.10;;;;;;220360;1267;22551;-52
2022/07/07 22:47:09;;;;;;;2.10;1.30;;;25.30;54.10;;;;;;220264;1267;23041;-51
2022/07/07 22:52:13;;;;;;;2.30;1.30;;;25.30;54.10;;;;;;220577;1267;22631;-49
2022/07/07 22:57:17;;;;;;;2.60;1.40;;;25.30;54.20;;;;;;220647;1267;26503;-53
2022/07/07 23:02:20;;;;;;;1.90;1.20;;;25.30;54.70;;;;;;220366;1267;25353;-54
2022/07/07 23:07:24;;;;;;;2.10;1.40;;;25.30;54.60;;;;;;220315;1268;22548;-51
2022/07/07 23:12:28;;;;;;;1.90;1.20;;;25.30;54.20;;;;;;220474;1267;23944;-53
2022/07/07 23:17:31;;;;;;;1.70;1.00;;;25.30;54.50;;;;;;220170;1267;23200;-51
2022/07/07 23:22:35;;;;;;;1.80;1.30;;;25.30;54.20;;;;;;220650;1267;23935;-48
2022/07/07 23:27:40;;;;;;;1.90;1.40;;;25.30;54.50;;;;;;220545;1267;25445;-50
2022/07/07 23:32:43;;;;;;;7.50;1.60;;;25.20;54.50;;;;;;220523;1268;25316;-52
2022/07/07 23:37:47;;;;;;;1.80;1.30;;;25.20;54.20;;;;;;220645;1267;22532;-50
2022/07/07 23:42:51;;;;;;;1.90;1.40;;;25.30;54.30;;;;;;220611;1267;23953;-50
2022/07/07 23:47:55;;;;;;;3.00;1.10;;;25.30;54.60;;;;;;220428;1267;22544;-53
2022/07/07 23:52:58;;;;;;;2.40;1.20;;;25.20;54.20;;;;;;220381;1267;22696;-50
2022/07/07 23:58:02;;;;;;;2.20;1.40;;;25.20;54.20;;;;;;220130;1270;22558;-52
